sensor_id;sensor_type;location;lat;lon;timestamp;pressure;altitude;pressure_sealevel;temperature;humidity
78117;BME280;69042;59.120;37.904;2023-07-13T00:00:50;98732.13;;;13.67;75.14
78117;BME280;69042;59.120;37.904;2023-07-13T00:03:16;98730.19;;;13.69;75.44
78117;BME280;69042;59.120;37.904;2023-07-13T00:05:43;98741.28;;;13.72;75.27
78117;BME280;69042;59.120;37.904;2023-07-13T00:08:09;98737.47;;;13.77;75.11
78117;BME280;69042;59.120;37.904;2023-07-13T00:10:40;98740.09;;;13.77;75.26
78117;BME280;69042;59.120;37.904;2023-07-13T00:13:08;98742.63;;;13.78;75.11
78117;BME280;69042;59.120;37.904;2023-07-13T00:15:35;98747.88;;;13.78;75.28
78117;BME280;69042;59.120;37.904;2023-07-13T00:18:02;98751.19;;;13.80;74.97
78117;BME280;69042;59.120;37.904;2023-07-13T00:20:28;98750.97;;;13.83;75.14
78117;BME280;69042;59.120;37.904;2023-07-13T00:22:54;98754.06;;;13.88;75.02
78117;BME280;69042;59.120;37.904;2023-07-13T00:25:21;98760.75;;;13.92;74.87
78117;BME280;69042;59.120;37.904;2023-07-13T00:27:50;98761.84;;;13.90;74.68
78117;BME280;69042;59.120;37.904;2023-07-13T00:30:17;98763.75;;;13.88;74.85
78117;BME280;69042;59.120;37.904;2023-07-13T00:32:43;98752.53;;;13.86;74.65
78117;BME280;69042;59.120;37.904;2023-07-13T00:35:09;98750.50;;;13.89;74.84
78117;BME280;69042;59.120;37.904;2023-07-13T00:37:36;98758.38;;;13.89;75.16
78117;BME280;69042;59.120;37.904;2023-07-13T00:40:05;98748.81;;;13.88;74.84
78117;BME280;69042;59.120;37.904;2023-07-13T00:42:32;98754.31;;;13.85;74.97
78117;BME280;69042;59.120;37.904;2023-07-13T00:47:54;98740.69;;;13.80;74.96
78117;BME280;69042;59.120;37.904;2023-07-13T00:50:22;98736.41;;;13.79;75.33
78117;BME280;69042;59.120;37.904;2023-07-13T00:52:53;98742.72;;;13.77;75.13
78117;BME280;69042;59.120;37.904;2023-07-13T00:55:21;98747.25;;;13.74;75.40
78117;BME280;69042;59.120;37.904;2023-07-13T00:57:48;98753.34;;;13.75;75.28
78117;BME280;69042;59.120;37.904;2023-07-13T01:00:15;98750.84;;;13.73;75.15
78117;BME280;69042;59.120;37.904;2023-07-13T01:02:45;98743.19;;;13.70;75.19
78117;BME280;69042;59.120;37.904;2023-07-13T01:05:13;98744.16;;;13.69;75.25
78117;BME280;69042;59.120;37.904;2023-07-13T01:07:42;98734.59;;;13.68;75.19
78117;BME280;69042;59.120;37.904;2023-07-13T01:10:11;98741.41;;;13.71;75.47
78117;BME280;69042;59.120;37.904;2023-07-13T01:12:37;98730.69;;;13.74;75.11
78117;BME280;69042;59.120;37.904;2023-07-13T01:15:05;98716.13;;;13.70;75.29
78117;BME280;69042;59.120;37.904;2023-07-13T01:17:33;98722.56;;;13.66;75.18
78117;BME280;69042;59.120;37.904;2023-07-13T01:19:59;98722.66;;;13.64;75.52
78117;BME280;69042;59.120;37.904;2023-07-13T01:22:26;98733.06;;;13.66;75.35
78117;BME280;69042;59.120;37.904;2023-07-13T01:24:53;98732.47;;;13.62;75.51
78117;BME280;69042;59.120;37.904;2023-07-13T01:27:22;98723.25;;;13.57;75.59
78117;BME280;69042;59.120;37.904;2023-07-13T01:29:52;98723.50;;;13.53;75.77
78117;BME280;69042;59.120;37.904;2023-07-13T01:32:22;98716.81;;;13.49;75.81
78117;BME280;69042;59.120;37.904;2023-07-13T01:34:53;98718.63;;;13.49;75.89
78117;BME280;69042;59.120;37.904;2023-07-13T01:37:20;98728.25;;;13.48;75.96
78117;BME280;69042;59.120;37.904;2023-07-13T01:39:47;98724.81;;;13.48;76.01
78117;BME280;69042;59.120;37.904;2023-07-13T01:42:13;98710.97;;;13.46;75.99
78117;BME280;69042;59.120;37.904;2023-07-13T01:44:40;98705.97;;;13.43;76.07
78117;BME280;69042;59.120;37.904;2023-07-13T01:47:07;98706.69;;;13.45;75.93
78117;BME280;69042;59.120;37.904;2023-07-13T01:49:33;98708.47;;;13.44;76.21
78117;BME280;69042;59.120;37.904;2023-07-13T01:52:00;98713.81;;;13.43;76.24
78117;BME280;69042;59.120;37.904;2023-07-13T01:54:26;98710.47;;;13.41;76.18
78117;BME280;69042;59.120;37.904;2023-07-13T01:56:52;98704.50;;;13.39;76.46
78117;BME280;69042;59.120;37.904;2023-07-13T01:59:18;98714.06;;;13.40;76.41
78117;BME280;69042;59.120;37.904;2023-07-13T02:01:44;98705.22;;;13.41;76.25
78117;BME280;69042;59.120;37.904;2023-07-13T02:04:10;98695.56;;;13.41;76.54
78117;BME280;69042;59.120;37.904;2023-07-13T02:06:36;98700.00;;;13.41;76.26
78117;BME280;69042;59.120;37.904;2023-07-13T02:09:02;98695.72;;;13.40;76.68
78117;BME280;69042;59.120;37.904;2023-07-13T02:11:29;98686.25;;;13.37;76.35
78117;BME280;69042;59.120;37.904;2023-07-13T02:14:00;98704.03;;;13.33;76.44
78117;BME280;69042;59.120;37.904;2023-07-13T02:16:28;98699.97;;;13.29;76.52
78117;BME280;69042;59.120;37.904;2023-07-13T02:18:55;98697.56;;;13.26;76.86
78117;BME280;69042;59.120;37.904;2023-07-13T02:21:22;98691.47;;;13.26;76.83
78117;BME280;69042;59.120;37.904;2023-07-13T02:23:51;98690.63;;;13.25;76.84
78117;BME280;69042;59.120;37.904;2023-07-13T02:26:18;98703.75;;;13.25;76.85
78117;BME280;69042;59.120;37.904;2023-07-13T02:28:45;98697.91;;;13.22;76.91
78117;BME280;69042;59.120;37.904;2023-07-13T02:31:14;98700.88;;;13.17;77.05
78117;BME280;69042;59.120;37.904;2023-07-13T02:33:41;98695.94;;;13.12;77.04
78117;BME280;69042;59.120;37.904;2023-07-13T02:36:08;98699.44;;;13.13;77.14
78117;BME280;69042;59.120;37.904;2023-07-13T02:38:35;98694.28;;;13.11;77.37
78117;BME280;69042;59.120;37.904;2023-07-13T02:41:03;98702.41;;;13.08;77.12
78117;BME280;69042;59.120;37.904;2023-07-13T02:43:30;98695.25;;;13.10;77.52
78117;BME280;69042;59.120;37.904;2023-07-13T02:45:56;98699.78;;;13.08;77.34
78117;BME280;69042;59.120;37.904;2023-07-13T02:48:22;98692.38;;;13.02;77.37
78117;BME280;69042;59.120;37.904;2023-07-13T02:50:48;98695.34;;;12.98;77.33
78117;BME280;69042;59.120;37.904;2023-07-13T02:53:14;98690.53;;;12.91;77.76
78117;BME280;69042;59.120;37.904;2023-07-13T02:55:40;98689.94;;;12.88;77.79
78117;BME280;69042;59.120;37.904;2023-07-13T02:58:07;98691.84;;;12.86;78.12
78117;BME280;69042;59.120;37.904;2023-07-13T03:00:33;98690.25;;;12.83;78.08
78117;BME280;69042;59.120;37.904;2023-07-13T03:03:00;98683.59;;;12.79;78.33
78117;BME280;69042;59.120;37.904;2023-07-13T03:05:26;98682.06;;;12.77;78.41
78117;BME280;69042;59.120;37.904;2023-07-13T03:07:52;98689.06;;;12.76;78.52
78117;BME280;69042;59.120;37.904;2023-07-13T03:10:19;98687.16;;;12.78;78.59
78117;BME280;69042;59.120;37.904;2023-07-13T03:12:49;98680.03;;;12.80;78.66
78117;BME280;69042;59.120;37.904;2023-07-13T03:15:23;98673.72;;;12.83;78.54
78117;BME280;69042;59.120;37.904;2023-07-13T03:17:52;98684.72;;;12.88;78.46
78117;BME280;69042;59.120;37.904;2023-07-13T03:20:18;98674.09;;;12.89;78.55
78117;BME280;69042;59.120;37.904;2023-07-13T03:22:45;98668.75;;;12.91;78.55
78117;BME280;69042;59.120;37.904;2023-07-13T03:25:11;98658.84;;;12.95;78.31
78117;BME280;69042;59.120;37.904;2023-07-13T03:27:38;98656.84;;;12.98;78.34
78117;BME280;69042;59.120;37.904;2023-07-13T03:30:07;98660.06;;;13.02;78.36
78117;BME280;69042;59.120;37.904;2023-07-13T03:32:34;98654.84;;;13.02;78.20
78117;BME280;69042;59.120;37.904;2023-07-13T03:35:00;98662.91;;;12.99;78.18
78117;BME280;69042;59.120;37.904;2023-07-13T03:37:29;98659.91;;;12.92;78.28
78117;BME280;69042;59.120;37.904;2023-07-13T03:39:55;98661.13;;;12.88;78.13
78117;BME280;69042;59.120;37.904;2023-07-13T03:42:21;98653.69;;;12.82;78.25
78117;BME280;69042;59.120;37.904;2023-07-13T03:44:48;98651.28;;;12.79;78.46
78117;BME280;69042;59.120;37.904;2023-07-13T03:47:18;98644.63;;;12.75;78.50
78117;BME280;69042;59.120;37.904;2023-07-13T03:49:46;98646.75;;;12.69;78.63
78117;BME280;69042;59.120;37.904;2023-07-13T03:52:13;98657.56;;;12.65;78.62
78117;BME280;69042;59.120;37.904;2023-07-13T03:54:39;98648.38;;;12.59;79.07
78117;BME280;69042;59.120;37.904;2023-07-13T03:57:09;98671.47;;;12.54;79.27
78117;BME280;69042;59.120;37.904;2023-07-13T03:59:36;98650.00;;;12.49;79.27
78117;BME280;69042;59.120;37.904;2023-07-13T04:02:02;98645.72;;;12.48;79.38
78117;BME280;69042;59.120;37.904;2023-07-13T04:04:32;98644.75;;;12.49;79.70
78117;BME280;69042;59.120;37.904;2023-07-13T04:06:59;98644.75;;;12.49;79.76
78117;BME280;69042;59.120;37.904;2023-07-13T04:09:25;98638.59;;;12.50;79.95
78117;BME280;69042;59.120;37.904;2023-07-13T04:11:51;98636.91;;;12.49;80.11
78117;BME280;69042;59.120;37.904;2023-07-13T04:14:17;98631.91;;;12.46;80.03
78117;BME280;69042;59.120;37.904;2023-07-13T04:16:44;98637.72;;;12.49;80.21
78117;BME280;69042;59.120;37.904;2023-07-13T04:19:10;98640.03;;;12.54;80.08
78117;BME280;69042;59.120;37.904;2023-07-13T04:21:36;98650.50;;;12.54;80.02
78117;BME280;69042;59.120;37.904;2023-07-13T04:24:03;98648.09;;;12.51;79.88
78117;BME280;69042;59.120;37.904;2023-07-13T04:26:30;98645.59;;;12.49;79.89
78117;BME280;69042;59.120;37.904;2023-07-13T04:28:56;98638.59;;;12.50;80.08
78117;BME280;69042;59.120;37.904;2023-07-13T04:31:23;98647.28;;;12.50;80.14
78117;BME280;69042;59.120;37.904;2023-07-13T04:33:49;98650.72;;;12.51;80.13
78117;BME280;69042;59.120;37.904;2023-07-13T04:36:16;98642.97;;;12.49;80.19
78117;BME280;69042;59.120;37.904;2023-07-13T04:38:43;98641.31;;;12.48;80.33
78117;BME280;69042;59.120;37.904;2023-07-13T04:41:09;98637.13;;;12.46;80.18
78117;BME280;69042;59.120;37.904;2023-07-13T04:43:38;98634.63;;;12.44;80.53
78117;BME280;69042;59.120;37.904;2023-07-13T04:46:06;98626.66;;;12.46;80.39
78117;BME280;69042;59.120;37.904;2023-07-13T04:48:33;98633.09;;;12.53;80.49
78117;BME280;69042;59.120;37.904;2023-07-13T04:51:00;98634.91;;;12.53;80.40
78117;BME280;69042;59.120;37.904;2023-07-13T04:53:28;98654.78;;;12.55;80.41
78117;BME280;69042;59.120;37.904;2023-07-13T04:55:54;98642.41;;;12.57;80.57
78117;BME280;69042;59.120;37.904;2023-07-13T04:58:21;98646.34;;;12.63;80.66
78117;BME280;69042;59.120;37.904;2023-07-13T05:00:47;98646.16;;;12.66;80.74
78117;BME280;69042;59.120;37.904;2023-07-13T05:03:14;98651.16;;;12.69;80.67
78117;BME280;69042;59.120;37.904;2023-07-13T05:05:40;98645.66;;;12.72;80.43
78117;BME280;69042;59.120;37.904;2023-07-13T05:08:06;98641.78;;;12.78;80.59
78117;BME280;69042;59.120;37.904;2023-07-13T05:10:33;98640.81;;;12.79;80.22
78117;BME280;69042;59.120;37.904;2023-07-13T05:13:00;98637.25;;;12.80;80.34
78117;BME280;69042;59.120;37.904;2023-07-13T05:15:26;98632.00;;;12.80;80.52
78117;BME280;69042;59.120;37.904;2023-07-13T05:17:52;98617.22;;;12.79;80.28
78117;BME280;69042;59.120;37.904;2023-07-13T05:20:19;98625.31;;;12.76;80.48
78117;BME280;69042;59.120;37.904;2023-07-13T05:22:45;98615.06;;;12.73;80.18
78117;BME280;69042;59.120;37.904;2023-07-13T05:25:14;98615.28;;;12.69;80.35
78117;BME280;69042;59.120;37.904;2023-07-13T05:27:40;98620.66;;;12.68;80.85
78117;BME280;69042;59.120;37.904;2023-07-13T05:30:07;98619.81;;;12.67;80.80
78117;BME280;69042;59.120;37.904;2023-07-13T05:32:36;98638.28;;;12.66;80.98
78117;BME280;69042;59.120;37.904;2023-07-13T05:35:03;98637.47;;;12.65;80.97
78117;BME280;69042;59.120;37.904;2023-07-13T05:37:29;98636.59;;;12.65;81.07
78117;BME280;69042;59.120;37.904;2023-07-13T05:39:55;98638.38;;;12.64;81.09
78117;BME280;69042;59.120;37.904;2023-07-13T05:42:21;98639.34;;;12.63;81.39
78117;BME280;69042;59.120;37.904;2023-07-13T05:44:47;98626.25;;;12.63;81.22
78117;BME280;69042;59.120;37.904;2023-07-13T05:47:13;98623.50;;;12.65;81.48
78117;BME280;69042;59.120;37.904;2023-07-13T05:49:41;98618.03;;;12.68;81.77
78117;BME280;69042;59.120;37.904;2023-07-13T05:52:07;98608.38;;;12.68;81.45
78117;BME280;69042;59.120;37.904;2023-07-13T05:54:33;98600.06;;;12.75;81.91
78117;BME280;69042;59.120;37.904;2023-07-13T05:56:59;98609.25;;;12.80;81.79
78117;BME280;69042;59.120;37.904;2023-07-13T05:59:26;98608.69;;;12.88;81.97
78117;BME280;69042;59.120;37.904;2023-07-13T06:01:52;98608.34;;;12.93;81.83
78117;BME280;69042;59.120;37.904;2023-07-13T06:04:19;98605.56;;;12.94;81.51
78117;BME280;69042;59.120;37.904;2023-07-13T06:06:46;98617.97;;;12.92;81.44
78117;BME280;69042;59.120;37.904;2023-07-13T06:09:12;98611.78;;;12.93;81.44
78117;BME280;69042;59.120;37.904;2023-07-13T06:11:38;98615.25;;;12.94;81.65
78117;BME280;69042;59.120;37.904;2023-07-13T06:14:04;98609.88;;;12.95;81.65
78117;BME280;69042;59.120;37.904;2023-07-13T06:16:30;98604.50;;;12.97;81.47
78117;BME280;69042;59.120;37.904;2023-07-13T06:18:57;98606.66;;;12.91;81.28
78117;BME280;69042;59.120;37.904;2023-07-13T06:21:23;98599.63;;;12.92;81.33
78117;BME280;69042;59.120;37.904;2023-07-13T06:23:50;98607.81;;;12.87;81.47
78117;BME280;69042;59.120;37.904;2023-07-13T06:26:18;98599.13;;;12.87;81.38
78117;BME280;69042;59.120;37.904;2023-07-13T06:28:45;98600.09;;;12.86;81.47
78117;BME280;69042;59.120;37.904;2023-07-13T06:31:12;98605.22;;;12.87;81.96
78117;BME280;69042;59.120;37.904;2023-07-13T06:33:39;98601.50;;;12.90;81.78
78117;BME280;69042;59.120;37.904;2023-07-13T06:36:06;98603.91;;;12.93;81.81
78117;BME280;69042;59.120;37.904;2023-07-13T06:38:34;98614.16;;;12.96;81.61
78117;BME280;69042;59.120;37.904;2023-07-13T06:41:04;98603.69;;;12.96;81.67
78117;BME280;69042;59.120;37.904;2023-07-13T06:43:30;98620.25;;;12.97;81.73
78117;BME280;69042;59.120;37.904;2023-07-13T06:45:58;98613.94;;;12.99;81.66
78117;BME280;69042;59.120;37.904;2023-07-13T06:48:24;98612.88;;;13.02;81.73
78117;BME280;69042;59.120;37.904;2023-07-13T06:50:50;98618.50;;;13.08;81.64
78117;BME280;69042;59.120;37.904;2023-07-13T06:53:18;98613.09;;;13.10;81.60
78117;BME280;69042;59.120;37.904;2023-07-13T06:55:45;98607.75;;;13.11;81.33
78117;BME280;69042;59.120;37.904;2023-07-13T06:58:12;98617.16;;;13.14;81.08
78117;BME280;69042;59.120;37.904;2023-07-13T07:00:38;98617.16;;;13.14;81.48
78117;BME280;69042;59.120;37.904;2023-07-13T07:03:06;98604.66;;;13.18;81.17
78117;BME280;69042;59.120;37.904;2023-07-13T07:05:32;98607.75;;;13.23;81.42
78117;BME280;69042;59.120;37.904;2023-07-13T07:07:59;98603.25;;;13.25;81.26
78117;BME280;69042;59.120;37.904;2023-07-13T07:10:25;98602.16;;;13.27;81.11
78117;BME280;69042;59.120;37.904;2023-07-13T07:12:52;98602.09;;;13.29;81.17
78117;BME280;69042;59.120;37.904;2023-07-13T07:15:18;98607.91;;;13.32;81.21
78117;BME280;69042;59.120;37.904;2023-07-13T07:17:44;98612.09;;;13.35;80.96
78117;BME280;69042;59.120;37.904;2023-07-13T07:20:11;98599.47;;;13.40;80.94
78117;BME280;69042;59.120;37.904;2023-07-13T07:22:37;98613.31;;;13.42;80.57
78117;BME280;69042;59.120;37.904;2023-07-13T07:25:04;98608.88;;;13.43;80.69
78117;BME280;69042;59.120;37.904;2023-07-13T07:27:30;98611.38;;;13.44;80.42
78117;BME280;69042;59.120;37.904;2023-07-13T07:29:57;98619.13;;;13.46;80.48
78117;BME280;69042;59.120;37.904;2023-07-13T07:32:29;98614.00;;;13.44;80.33
78117;BME280;69042;59.120;37.904;2023-07-13T07:34:56;98615.78;;;13.44;80.28
78117;BME280;69042;59.120;37.904;2023-07-13T07:37:22;98621.88;;;13.44;nan
78117;BME280;69042;59.120;37.904;2023-07-13T07:39:49;98620.66;;;13.48;80.64
78117;BME280;69042;59.120;37.904;2023-07-13T07:42:15;98636.06;;;13.53;80.44
78117;BME280;69042;59.120;37.904;2023-07-13T07:44:42;98629.75;;;13.56;80.55
78117;BME280;69042;59.120;37.904;2023-07-13T07:47:08;98627.72;;;13.59;80.23
78117;BME280;69042;59.120;37.904;2023-07-13T07:49:36;98620.66;;;13.60;80.27
78117;BME280;69042;59.120;37.904;2023-07-13T07:52:02;98616.03;;;13.63;80.28
78117;BME280;69042;59.120;37.904;2023-07-13T07:54:28;98618.41;;;13.66;80.37
78117;BME280;69042;59.120;37.904;2023-07-13T07:56:54;98617.31;;;13.69;80.27
78117;BME280;69042;59.120;37.904;2023-07-13T07:59:21;98631.03;;;13.72;80.13
78117;BME280;69042;59.120;37.904;2023-07-13T08:01:47;98635.22;;;13.75;80.26
78117;BME280;69042;59.120;37.904;2023-07-13T08:04:16;98642.97;;;13.77;79.85
78117;BME280;69042;59.120;37.904;2023-07-13T08:06:42;98644.06;;;13.74;80.00
78117;BME280;69042;59.120;37.904;2023-07-13T08:09:08;98644.16;;;13.72;79.73
78117;BME280;69042;59.120;37.904;2023-07-13T08:11:35;98647.88;;;13.70;79.83
78117;BME280;69042;59.120;37.904;2023-07-13T08:14:01;98645.59;;;13.65;80.08
78117;BME280;69042;59.120;37.904;2023-07-13T08:16:28;98648.81;;;13.69;79.64
78117;BME280;69042;59.120;37.904;2023-07-13T08:18:54;98642.00;;;13.66;79.81
78117;BME280;69042;59.120;37.904;2023-07-13T08:21:20;98643.09;;;13.64;79.98
78117;BME280;69042;59.120;37.904;2023-07-13T08:23:47;98640.34;;;13.65;80.35
78117;BME280;69042;59.120;37.904;2023-07-13T08:26:13;98630.31;;;13.70;nan
78117;BME280;69042;59.120;37.904;2023-07-13T08:28:40;98630.94;;;13.74;80.33
78117;BME280;69042;59.120;37.904;2023-07-13T08:31:07;98633.19;;;13.79;80.61
78117;BME280;69042;59.120;37.904;2023-07-13T08:33:34;98636.38;;;13.82;79.95
78117;BME280;69042;59.120;37.904;2023-07-13T08:36:04;98639.63;;;13.86;80.27
78117;BME280;69042;59.120;37.904;2023-07-13T08:38:31;98646.53;;;13.87;80.24
78117;BME280;69042;59.120;37.904;2023-07-13T08:40:57;98652.63;;;13.87;80.18
78117;BME280;69042;59.120;37.904;2023-07-13T08:43:29;98652.50;;;13.89;80.13
78117;BME280;69042;59.120;37.904;2023-07-13T08:48:49;98649.38;;;13.95;80.13
78117;BME280;69042;59.120;37.904;2023-07-13T08:53:48;98641.59;;;14.05;79.96
78117;BME280;69042;59.120;37.904;2023-07-13T08:56:25;98636.94;;;14.08;80.12
78117;BME280;69042;59.120;37.904;2023-07-13T08:58:56;98638.94;;;14.16;80.20
78117;BME280;69042;59.120;37.904;2023-07-13T09:01:47;98655.78;;;14.25;80.01
78117;BME280;69042;59.120;37.904;2023-07-13T09:04:22;98664.81;;;14.32;80.09
78117;BME280;69042;59.120;37.904;2023-07-13T09:12:13;98673.03;;;14.38;79.57
78117;BME280;69042;59.120;37.904;2023-07-13T09:14:47;98668.38;;;14.42;79.55
78117;BME280;69042;59.120;37.904;2023-07-13T09:17:20;98677.81;;;14.45;79.21
78117;BME280;69042;59.120;37.904;2023-07-13T09:19:57;98664.66;;;14.45;79.26
78117;BME280;69042;59.120;37.904;2023-07-13T09:22:27;98662.88;;;14.45;79.17
78117;BME280;69042;59.120;37.904;2023-07-13T09:25:05;98657.03;;;14.42;78.78
78117;BME280;69042;59.120;37.904;2023-07-13T09:27:43;98653.81;;;14.38;78.99
78117;BME280;69042;59.120;37.904;2023-07-13T09:32:41;98657.53;;;14.35;78.95
78117;BME280;69042;59.120;37.904;2023-07-13T09:35:15;98653.97;;;14.36;79.05
78117;BME280;69042;59.120;37.904;2023-07-13T09:37:43;98644.41;;;14.35;79.05
78117;BME280;69042;59.120;37.904;2023-07-13T09:40:17;98640.94;;;14.35;79.09
78117;BME280;69042;59.120;37.904;2023-07-13T09:42:46;98643.47;;;14.36;79.09
78117;BME280;69042;59.120;37.904;2023-07-13T09:45:17;98649.66;;;14.35;79.42
78117;BME280;69042;59.120;37.904;2023-07-13T09:48:11;98655.63;;;14.37;79.33
78117;BME280;69042;59.120;37.904;2023-07-13T09:50:38;98666.25;;;14.36;79.23
78117;BME280;69042;59.120;37.904;2023-07-13T09:53:11;98663.63;;;14.36;79.33
78117;BME280;69042;59.120;37.904;2023-07-13T09:55:39;98674.84;;;14.38;79.41
78117;BME280;69042;59.120;37.904;2023-07-13T09:58:11;98668.75;;;14.37;79.09
78117;BME280;69042;59.120;37.904;2023-07-13T10:00:38;98667.09;;;14.36;79.10
78117;BME280;69042;59.120;37.904;2023-07-13T10:03:17;98678.56;;;14.35;79.17
78117;BME280;69042;59.120;37.904;2023-07-13T10:05:45;98683.69;;;14.37;79.00
78117;BME280;69042;59.120;37.904;2023-07-13T10:08:17;98682.97;;;14.35;79.25
78117;BME280;69042;59.120;37.904;2023-07-13T10:10:45;98683.94;;;14.34;78.99
78117;BME280;69042;59.120;37.904;2023-07-13T10:13:34;98690.03;;;14.34;79.24
78117;BME280;69042;59.120;37.904;2023-07-13T10:16:04;98685.63;;;14.35;79.03
78117;BME280;69042;59.120;37.904;2023-07-13T10:21:14;98688.16;;;14.25;79.00
78117;BME280;69042;59.120;37.904;2023-07-13T10:23:42;98692.81;;;14.22;79.27
78117;BME280;69042;59.120;37.904;2023-07-13T10:26:23;98696.03;;;14.25;79.23
78117;BME280;69042;59.120;37.904;2023-07-13T10:28:56;98694.47;;;14.23;79.33
78117;BME280;69042;59.120;37.904;2023-07-13T10:31:23;98693.53;;;14.24;79.59
78117;BME280;69042;59.120;37.904;2023-07-13T10:33:50;98693.53;;;14.24;79.60
78117;BME280;69042;59.120;37.904;2023-07-13T10:38:59;98698.28;;;14.30;79.48
78117;BME280;69042;59.120;37.904;2023-07-13T10:41:29;98690.97;;;14.33;79.81
78117;BME280;69042;59.120;37.904;2023-07-13T10:43:58;98699.22;;;14.40;79.83
78117;BME280;69042;59.120;37.904;2023-07-13T10:46:27;98709.22;;;14.46;79.62
78117;BME280;69042;59.120;37.904;2023-07-13T10:49:01;98709.94;;;14.48;79.34
78117;BME280;69042;59.120;37.904;2023-07-13T10:51:30;98711.16;;;14.44;79.27
78117;BME280;69042;59.120;37.904;2023-07-13T10:54:18;98715.81;;;14.41;79.15
78117;BME280;69042;59.120;37.904;2023-07-13T10:56:45;98720.34;;;14.38;79.24
78117;BME280;69042;59.120;37.904;2023-07-13T10:59:15;98713.31;;;14.39;79.17
78117;BME280;69042;59.120;37.904;2023-07-13T11:04:12;98717.84;;;14.37;79.29
78117;BME280;69042;59.120;37.904;2023-07-13T11:06:41;98712.34;;;14.40;79.33
78117;BME280;69042;59.120;37.904;2023-07-13T11:11:59;98711.84;;;14.46;79.36
78117;BME280;69042;59.120;37.904;2023-07-13T11:15:27;98720.69;;;14.45;79.51
78117;BME280;69042;59.120;37.904;2023-07-13T11:19:54;98716.28;;;14.46;79.57
78117;BME280;69042;59.120;37.904;2023-07-13T11:22:43;98721.28;;;14.49;79.62
78117;BME280;69042;59.120;37.904;2023-07-13T11:25:29;98727.97;;;14.53;79.63
78117;BME280;69042;59.120;37.904;2023-07-13T11:28:17;98728.56;;;14.56;79.79
78117;BME280;69042;59.120;37.904;2023-07-13T11:36:00;98725.00;;;14.57;79.64
78117;BME280;69042;59.120;37.904;2023-07-13T11:38:38;98730.16;;;14.59;79.63
78117;BME280;69042;59.120;37.904;2023-07-13T11:41:18;98726.66;;;14.58;79.56
78117;BME280;69042;59.120;37.904;2023-07-13T11:43:48;98730.25;;;14.57;79.55
78117;BME280;69042;59.120;37.904;2023-07-13T11:46:25;98732.78;;;14.59;79.65
78117;BME280;69042;59.120;37.904;2023-07-13T11:48:52;98733.59;;;14.60;79.65
78117;BME280;69042;59.120;37.904;2023-07-13T11:51:31;98734.44;;;14.60;79.68
78117;BME280;69042;59.120;37.904;2023-07-13T11:54:01;98731.53;;;14.63;79.77
78117;BME280;69042;59.120;37.904;2023-07-13T11:56:28;98735.59;;;14.67;79.92
78117;BME280;69042;59.120;37.904;2023-07-13T11:58:57;98734.66;;;14.68;79.73
78117;BME280;69042;59.120;37.904;2023-07-13T12:01:26;98737.28;;;14.68;79.56
78117;BME280;69042;59.120;37.904;2023-07-13T12:04:03;98743.38;;;14.69;79.64
78117;BME280;69042;59.120;37.904;2023-07-13T12:06:32;98746.72;;;14.71;79.56
78117;BME280;69042;59.120;37.904;2023-07-13T12:09:00;98749.19;;;14.72;79.70
78117;BME280;69042;59.120;37.904;2023-07-13T12:11:27;98748.00;;;14.76;79.76
78117;BME280;69042;59.120;37.904;2023-07-13T12:13:53;98756.09;;;14.85;79.62
78117;BME280;69042;59.120;37.904;2023-07-13T12:16:30;98757.53;;;14.89;79.35
78117;BME280;69042;59.120;37.904;2023-07-13T12:19:02;98755.47;;;14.92;79.30
78117;BME280;69042;59.120;37.904;2023-07-13T12:21:33;98769.47;;;14.93;78.79
78117;BME280;69042;59.120;37.904;2023-07-13T12:24:01;98762.25;;;14.95;79.14
78117;BME280;69042;59.120;37.904;2023-07-13T12:26:30;98762.41;;;14.93;79.18
78117;BME280;69042;59.120;37.904;2023-07-13T12:29:00;98771.97;;;14.94;79.37
78117;BME280;69042;59.120;37.904;2023-07-13T12:31:33;98769.94;;;14.98;79.02
78117;BME280;69042;59.120;37.904;2023-07-13T12:34:22;98774.69;;;15.04;79.51
78117;BME280;69042;59.120;37.904;2023-07-13T12:39:34;98771.09;;;15.05;79.03
78117;BME280;69042;59.120;37.904;2023-07-13T12:42:31;98781.16;;;15.00;79.16
78117;BME280;69042;59.120;37.904;2023-07-13T12:45:11;98780.56;;;14.96;79.16
78117;BME280;69042;59.120;37.904;2023-07-13T12:47:43;98780.22;;;14.90;78.95
78117;BME280;69042;59.120;37.904;2023-07-13T12:50:16;98789.56;;;14.83;79.39
78117;BME280;69042;59.120;37.904;2023-07-13T12:52:44;98791.59;;;14.79;79.47
78117;BME280;69042;59.120;37.904;2023-07-13T12:55:17;98788.25;;;14.77;79.74
78117;BME280;69042;59.120;37.904;2023-07-13T12:57:48;98785.75;;;14.87;79.94
78117;BME280;69042;59.120;37.904;2023-07-13T13:00:36;98784.78;;;14.88;79.76
78117;BME280;69042;59.120;37.904;2023-07-13T13:05:59;98790.22;;;15.07;79.94
78117;BME280;69042;59.120;37.904;2023-07-13T13:08:26;98780.84;;;15.14;79.93
78117;BME280;69042;59.120;37.904;2023-07-13T13:10:52;98789.78;;;15.23;79.78
78117;BME280;69042;59.120;37.904;2023-07-13T13:13:18;98798.84;;;15.30;79.76
78117;BME280;69042;59.120;37.904;2023-07-13T13:15:44;98798.22;;;15.38;79.67
78117;BME280;69042;59.120;37.904;2023-07-13T13:18:21;98798.66;;;15.43;79.36
78117;BME280;69042;59.120;37.904;2023-07-13T13:20:49;98800.09;;;15.47;79.50
78117;BME280;69042;59.120;37.904;2023-07-13T13:23:19;98803.16;;;15.52;79.45
78117;BME280;69042;59.120;37.904;2023-07-13T13:25:48;98806.22;;;15.57;79.34
78117;BME280;69042;59.120;37.904;2023-07-13T13:28:20;98801.69;;;15.59;79.12
78117;BME280;69042;59.120;37.904;2023-07-13T13:30:48;98796.41;;;15.59;78.90
78117;BME280;69042;59.120;37.904;2023-07-13T13:33:17;98806.13;;;15.59;79.04
78117;BME280;69042;59.120;37.904;2023-07-13T13:35:44;98793.06;;;15.57;78.99
78117;BME280;69042;59.120;37.904;2023-07-13T13:38:15;98797.38;;;15.58;79.00